Time;durP1;ratioP1;P1;durP2;ratioP2;P2;SDS_P1;SDS_P2;PMS_P1;PMS_P2;Temp;Humidity;BMP_temperature;BMP_pressure;BME280_temperature;BME280_humidity;BME280_pressure;Samples;Min_cycle;Max_cycle;Signal;HPM_P1;HPM_P2
2020/12/24 00:00:33;;;;;;;7.40;2.40;;;8.60;93.50;;;;;;4423035;32;20279;-68
2020/12/24 00:03:02;;;;;;;11.30;2.57;;;8.60;93.50;;;;;;4424585;32;20163;-67
2020/12/24 00:05:32;;;;;;;7.80;2.87;;;8.60;93.50;;;;;;4428909;32;20189;-69
2020/12/24 00:08:01;;;;;;;12.93;2.40;;;8.60;93.50;;;;;;4428954;32;20171;-67
2020/12/24 00:10:31;;;;;;;5.23;2.80;;;8.70;93.50;;;;;;4430557;32;20209;-68
2020/12/24 00:13:08;;;;;;;6.13;2.80;;;8.70;93.50;;;;;;4420658;32;20231;-69
2020/12/24 00:15:39;;;;;;;4.40;2.93;;;8.70;93.50;;;;;;4423616;32;20166;-68
2020/12/24 00:18:16;;;;;;;6.60;3.00;;;8.70;93.40;;;;;;4424498;32;20616;-69
2020/12/24 00:20:44;;;;;;;8.33;3.30;;;8.60;93.50;;;;;;4426045;32;20175;-68
2020/12/24 00:23:15;;;;;;;7.47;2.93;;;8.70;93.50;;;;;;4429916;32;20174;-67
2020/12/24 00:25:51;;;;;;;7.30;3.43;;;8.70;93.50;;;;;;4424670;32;20193;-67
2020/12/24 00:28:22;;;;;;;12.07;3.70;;;8.70;93.50;;;;;;4430161;32;20167;-67
2020/12/24 00:30:49;;;;;;;9.83;3.03;;;8.80;93.50;;;;;;4423044;32;20275;-66
2020/12/24 00:33:17;;;;;;;11.90;3.90;;;8.80;93.50;;;;;;4429398;32;20182;-68
2020/12/24 00:35:43;;;;;;;7.97;4.27;;;8.80;93.50;;;;;;4421843;32;20172;-67
2020/12/24 00:38:15;;;;;;;12.17;3.37;;;8.80;93.40;;;;;;4425064;32;20232;-68
2020/12/24 00:40:48;;;;;;;9.43;2.83;;;8.80;93.40;;;;;;4426940;32;20214;-68
2020/12/24 00:43:20;;;;;;;9.03;3.20;;;8.80;93.40;;;;;;4429299;32;20178;-68
2020/12/24 00:46:00;;;;;;;8.10;3.20;;;8.80;93.30;;;;;;4426495;32;20452;-67
2020/12/24 00:48:28;;;;;;;10.53;3.07;;;8.80;93.60;;;;;;4427426;32;20160;-66
2020/12/24 00:50:58;;;;;;;8.40;3.13;;;8.80;93.20;;;;;;4434679;32;20179;-68
2020/12/24 00:53:24;;;;;;;12.93;2.90;;;8.80;93.00;;;;;;4429494;32;20468;-67
2020/12/24 00:55:59;;;;;;;9.53;2.87;;;8.80;93.00;;;;;;4423362;32;20587;-67
2020/12/24 00:58:34;;;;;;;9.67;3.00;;;8.70;92.90;;;;;;4428445;32;20189;-68
2020/12/24 01:01:02;;;;;;;6.87;3.03;;;8.80;93.00;;;;;;4431905;32;20179;-66
2020/12/24 01:03:28;;;;;;;11.30;2.87;;;8.80;92.70;;;;;;4424365;32;20254;-67
2020/12/24 01:05:57;;;;;;;6.63;2.93;;;8.70;92.70;;;;;;4424754;32;20218;-67
2020/12/24 01:08:23;;;;;;;6.67;2.30;;;8.70;92.30;;;;;;4430963;32;20493;-67
2020/12/24 01:10:56;;;;;;;13.53;2.50;;;8.70;92.30;;;;;;4429218;32;20182;-68
2020/12/24 01:13:27;;;;;;;11.30;3.00;;;8.60;92.40;;;;;;4425732;32;20233;-67
2020/12/24 01:15:56;;;;;;;10.37;2.70;;;8.60;92.30;;;;;;4432901;32;20174;-68
2020/12/24 01:18:32;;;;;;;10.53;2.70;;;8.60;92.40;;;;;;4434567;32;20230;-67
2020/12/24 01:20:58;;;;;;;11.67;2.43;;;8.60;91.90;;;;;;4433008;32;20177;-68
2020/12/24 01:23:26;;;;;;;20.37;3.30;;;8.50;92.20;;;;;;4434958;32;20227;-66
2020/12/24 01:26:07;;;;;;;10.67;3.37;;;8.50;92.40;;;;;;4430210;32;20151;-69
2020/12/24 01:28:38;;;;;;;10.63;2.40;;;8.50;92.20;;;;;;4423191;32;20369;-66
2020/12/24 01:31:04;;;;;;;6.33;2.43;;;8.50;92.40;;;;;;4429746;32;20441;-66
2020/12/24 01:33:34;;;;;;;5.27;3.13;;;8.50;92.20;;;;;;4428731;32;20148;-67
2020/12/24 01:36:00;;;;;;;13.47;3.10;;;8.50;92.20;;;;;;4426930;32;20201;-67
2020/12/24 01:38:28;;;;;;;10.23;2.30;;;8.40;92.30;;;;;;4423931;32;20190;-67
2020/12/24 01:41:02;;;;;;;8.97;2.30;;;8.40;92.40;;;;;;4426601;32;20159;-68
2020/12/24 01:43:29;;;;;;;9.67;2.13;;;8.40;92.20;;;;;;4426838;32;20159;-66
2020/12/24 01:45:58;;;;;;;6.17;2.20;;;8.40;92.10;;;;;;4423667;32;20253;-67
2020/12/24 01:48:25;;;;;;;9.70;2.47;;;8.40;92.30;;;;;;4431745;32;20599;-68
2020/12/24 01:50:52;;;;;;;10.73;2.70;;;8.30;92.40;;;;;;4434849;32;20351;-66
2020/12/24 01:53:26;;;;;;;11.13;2.53;;;8.30;92.10;;;;;;4427090;32;20515;-65
2020/12/24 01:56:04;;;;;;;11.00;2.33;;;8.20;92.30;;;;;;4427853;32;20220;-69
2020/12/24 01:58:31;;;;;;;10.53;2.60;;;8.20;92.20;;;;;;4427135;32;20628;-67
2020/12/24 02:00:59;;;;;;;7.50;1.93;;;8.20;92.10;;;;;;4427661;32;20642;-69
2020/12/24 02:03:30;;;;;;;10.57;2.90;;;8.10;92.10;;;;;;4423682;32;20232;-67
2020/12/24 02:05:59;;;;;;;6.23;1.80;;;8.20;92.10;;;;;;4427150;32;20685;-66
2020/12/24 02:08:25;;;;;;;11.50;3.60;;;8.20;92.10;;;;;;4429776;32;20215;-65
2020/12/24 02:10:55;;;;;;;7.87;2.07;;;8.10;92.10;;;;;;4431737;32;20261;-67
2020/12/24 02:13:30;;;;;;;8.73;1.90;;;8.10;92.20;;;;;;4427576;32;20204;-65
2020/12/24 02:15:57;;;;;;;7.97;1.77;;;8.10;92.20;;;;;;4419898;32;20226;-67
2020/12/24 02:18:26;;;;;;;6.30;1.87;;;8.10;92.20;;;;;;4423135;32;20227;-66
2020/12/24 02:20:57;;;;;;;8.87;2.13;;;8.10;92.10;;;;;;4431180;32;20630;-66
2020/12/24 02:23:24;;;;;;;10.90;2.03;;;8.10;92.00;;;;;;4433529;32;20174;-66
2020/12/24 02:25:50;;;;;;;9.43;1.87;;;8.10;91.90;;;;;;4424069;32;20702;-69
2020/12/24 02:28:16;;;;;;;4.13;1.70;;;8.10;91.90;;;;;;4423199;32;20171;-66
2020/12/24 02:30:44;;;;;;;4.23;1.83;;;8.00;92.10;;;;;;4433549;32;20223;-66
2020/12/24 02:33:14;;;;;;;8.13;2.20;;;8.10;91.90;;;;;;4433814;32;20264;-67
2020/12/24 02:35:40;;;;;;;8.33;1.93;;;8.10;91.40;;;;;;4431480;32;20196;-68
2020/12/24 02:38:12;;;;;;;7.73;1.90;;;8.10;91.30;;;;;;4433478;32;20211;-66
2020/12/24 02:40:39;;;;;;;10.03;1.73;;;8.00;91.70;;;;;;4429835;32;20163;-67
2020/12/24 02:43:08;;;;;;;6.87;1.77;;;8.00;91.40;;;;;;4430905;32;20595;-67
2020/12/24 02:45:37;;;;;;;5.90;1.70;;;8.00;92.00;;;;;;4425554;32;20174;-67
2020/12/24 02:48:07;;;;;;;11.70;1.90;;;8.00;91.70;;;;;;4427718;32;20261;-66
2020/12/24 02:50:48;;;;;;;9.33;2.33;;;7.90;92.00;;;;;;4419664;32;20558;-66
2020/12/24 02:53:16;;;;;;;9.77;1.70;;;8.00;92.00;;;;;;4431083;32;20163;-68
2020/12/24 02:55:45;;;;;;;6.60;1.77;;;8.00;92.00;;;;;;4431651;32;20232;-65
2020/12/24 02:58:18;;;;;;;5.90;1.67;;;8.00;91.90;;;;;;4428181;32;20155;-66
2020/12/24 03:00:50;;;;;;;8.20;2.20;;;8.00;92.10;;;;;;4429868;32;20206;-67
2020/12/24 03:03:24;;;;;;;10.97;2.77;;;8.00;92.10;;;;;;4427528;32;20155;-66
2020/12/24 03:05:53;;;;;;;6.93;1.57;;;8.00;92.20;;;;;;4431020;32;20217;-66
2020/12/24 03:08:28;;;;;;;5.23;1.60;;;8.10;92.10;;;;;;4428223;32;20283;-66
2020/12/24 03:10:54;;;;;;;11.10;2.50;;;8.00;92.20;;;;;;4428557;32;20174;-67
2020/12/24 03:13:20;;;;;;;11.00;2.33;;;8.10;92.20;;;;;;4425806;32;20241;-67
2020/12/24 03:15:51;;;;;;;7.23;2.20;;;8.10;92.30;;;;;;4425646;32;20524;-65
2020/12/24 03:18:23;;;;;;;11.23;2.37;;;8.10;92.20;;;;;;4431202;32;20227;-67
2020/12/24 03:20:52;;;;;;;12.53;2.53;;;8.20;92.20;;;;;;4430998;32;20189;-67
2020/12/24 03:23:18;;;;;;;13.63;2.93;;;8.10;92.10;;;;;;4426491;32;20159;-67
2020/12/24 03:25:54;;;;;;;8.27;2.37;;;8.10;92.20;;;;;;4431635;32;20189;-67
2020/12/24 03:28:22;;;;;;;6.90;2.27;;;8.10;92.30;;;;;;4426639;32;20179;-66
2020/12/24 03:30:48;;;;;;;12.43;2.83;;;8.10;92.30;;;;;;4421881;32;20151;-68
2020/12/24 03:33:21;;;;;;;12.07;2.23;;;8.10;92.50;;;;;;4430775;32;20216;-65
2020/12/24 03:35:50;;;;;;;10.83;2.57;;;8.00;92.40;;;;;;4421765;32;20210;-65
2020/12/24 03:38:16;;;;;;;8.90;2.17;;;8.10;92.40;;;;;;4424219;32;20266;-64
2020/12/24 03:40:43;;;;;;;12.60;3.77;;;8.10;92.30;;;;;;4424832;32;20552;-66
2020/12/24 03:43:15;;;;;;;13.20;2.73;;;8.20;92.40;;;;;;4432796;32;20193;-66
2020/12/24 03:45:47;;;;;;;12.00;3.70;;;8.20;91.90;;;;;;4430596;32;20562;-68
2020/12/24 03:48:15;;;;;;;15.43;6.70;;;8.20;91.90;;;;;;4424678;32;20164;-66
2020/12/24 03:50:42;;;;;;;15.60;8.60;;;8.20;91.90;;;;;;4429787;32;20571;-65
2020/12/24 03:53:13;;;;;;;13.10;9.50;;;8.10;92.00;;;;;;4427838;32;20159;-66
2020/12/24 03:55:44;;;;;;;15.20;9.10;;;8.20;92.20;;;;;;4418974;32;20235;-66
2020/12/24 03:58:16;;;;;;;8.17;5.03;;;8.10;92.20;;;;;;4422180;32;20260;-68
2020/12/24 04:00:42;;;;;;;4.30;3.60;;;8.00;92.00;;;;;;4427418;32;20143;-65
2020/12/24 04:03:15;;;;;;;3.80;3.00;;;7.70;91.60;;;;;;4424041;32;20170;-66
2020/12/24 04:05:43;;;;;;;4.23;2.73;;;7.50;91.70;;;;;;4432279;32;20186;-66
2020/12/24 04:08:12;;;;;;;5.17;2.77;;;7.30;92.10;;;;;;4430552;32;20155;-66
2020/12/24 04:10:42;;;;;;;2.57;1.90;;;7.10;92.30;;;;;;4435975;32;20178;-67
2020/12/24 04:13:08;;;;;;;4.00;1.87;;;7.10;92.50;;;;;;4429554;32;21015;-69
2020/12/24 04:15:35;;;;;;;2.43;1.63;;;6.90;92.20;;;;;;4425893;32;20537;-68
2020/12/24 04:18:04;;;;;;;4.17;1.53;;;6.70;92.50;;;;;;4426286;32;20583;-67
2020/12/24 04:20:30;;;;;;;1.57;1.30;;;6.60;92.30;;;;;;4430810;32;20215;-65
2020/12/24 04:22:57;;;;;;;9.23;1.13;;;6.40;91.90;;;;;;4425514;32;20235;-67
2020/12/24 04:25:26;;;;;;;1.40;1.00;;;6.20;92.10;;;;;;4429432;32;20702;-67
2020/12/24 04:27:55;;;;;;;3.13;0.97;;;6.10;92.30;;;;;;4428440;32;20604;-66
2020/12/24 04:30:21;;;;;;;1.40;0.73;;;5.90;92.30;;;;;;4424952;32;20174;-69
2020/12/24 04:32:48;;;;;;;2.20;0.93;;;5.80;92.20;;;;;;4430830;32;20176;-68
2020/12/24 04:35:19;;;;;;;1.80;1.10;;;5.70;92.50;;;;;;4428204;32;20289;-69
2020/12/24 04:37:47;;;;;;;2.53;1.73;;;5.70;92.90;;;;;;4427029;32;20159;-69
2020/12/24 04:40:13;;;;;;;1.30;1.17;;;5.70;93.20;;;;;;4428530;32;20214;-66
2020/12/24 04:42:44;;;;;;;2.13;1.63;;;5.60;92.80;;;;;;4435586;32;20215;-68
2020/12/24 04:45:13;;;;;;;2.00;1.33;;;5.60;92.70;;;;;;4432345;32;20442;-67
2020/12/24 04:47:41;;;;;;;1.93;1.20;;;5.50;92.80;;;;;;4426933;32;20182;-67
2020/12/24 04:50:13;;;;;;;2.53;1.20;;;5.40;92.70;;;;;;4428542;32;20245;-67
2020/12/24 04:52:42;;;;;;;2.00;0.80;;;5.30;92.70;;;;;;4429985;32;20505;-66
2020/12/24 04:55:10;;;;;;;3.10;0.90;;;5.20;92.80;;;;;;4433965;32;20222;-66
2020/12/24 04:57:37;;;;;;;1.60;0.83;;;5.20;92.70;;;;;;4425438;32;20183;-66
2020/12/24 05:00:06;;;;;;;0.57;0.57;;;5.00;92.50;;;;;;4431432;32;20256;-66
2020/12/24 05:02:33;;;;;;;5.67;1.00;;;5.00;92.70;;;;;;4436422;32;20216;-67
2020/12/24 05:05:02;;;;;;;1.23;0.47;;;4.90;92.40;;;;;;4433261;32;20163;-66
2020/12/24 05:07:36;;;;;;;0.40;0.40;;;4.80;92.50;;;;;;4431894;32;20173;-65
2020/12/24 05:10:06;;;;;;;1.97;0.50;;;4.70;92.50;;;;;;4437149;32;20155;-66
2020/12/24 05:12:33;;;;;;;0.43;0.40;;;4.60;92.90;;;;;;4436429;32;20198;-65
2020/12/24 05:15:01;;;;;;;2.30;0.80;;;4.60;92.70;;;;;;4433637;32;20181;-64
2020/12/24 05:17:31;;;;;;;1.43;0.40;;;4.50;92.70;;;;;;4427963;32;20536;-69
2020/12/24 05:20:09;;;;;;;0.63;0.43;;;4.50;92.80;;;;;;4430265;32;20157;-65
2020/12/24 05:22:36;;;;;;;0.93;0.40;;;4.50;92.70;;;;;;4431031;32;20227;-66
2020/12/24 05:25:06;;;;;;;0.97;0.50;;;4.40;92.80;;;;;;4432903;32;20210;-68
2020/12/24 05:27:44;;;;;;;0.40;0.30;;;4.40;92.80;;;;;;4425628;32;20187;-64
2020/12/24 05:30:11;;;;;;;1.80;0.53;;;4.40;92.80;;;;;;4431991;32;20189;-66
2020/12/24 05:32:39;;;;;;;0.67;0.53;;;4.30;92.80;;;;;;4436652;32;20167;-67
2020/12/24 05:35:07;;;;;;;1.20;0.50;;;4.30;92.90;;;;;;4428193;32;20260;-65
2020/12/24 05:37:36;;;;;;;0.30;0.30;;;4.30;92.90;;;;;;4423617;32;20672;-66
2020/12/24 05:40:19;;;;;;;0.60;0.37;;;4.30;93.00;;;;;;4435472;32;20182;-67
2020/12/24 05:42:54;;;;;;;1.73;0.43;;;4.40;93.20;;;;;;4426829;32;20171;-67
2020/12/24 05:45:29;;;;;;;0.63;0.50;;;4.30;93.10;;;;;;4434023;32;20505;-66
2020/12/24 05:48:14;;;;;;;1.10;0.40;;;4.40;93.20;;;;;;4425131;32;20215;-66
2020/12/24 05:50:46;;;;;;;1.63;0.70;;;4.40;93.20;;;;;;4434785;32;20458;-68
2020/12/24 05:53:30;;;;;;;0.70;0.50;;;4.40;93.20;;;;;;4431576;32;20189;-64
2020/12/24 05:56:01;;;;;;;0.67;0.67;;;4.40;93.20;;;;;;4432660;32;20162;-66
2020/12/24 05:58:39;;;;;;;1.90;0.73;;;4.40;93.30;;;;;;4433179;32;20170;-67
2020/12/24 06:01:16;;;;;;;1.13;0.40;;;4.40;93.30;;;;;;4431733;32;20164;-67
2020/12/24 06:04:03;;;;;;;0.80;0.60;;;4.50;93.40;;;;;;4431038;32;20143;-66
2020/12/24 06:06:43;;;;;;;1.53;0.70;;;4.40;93.50;;;;;;4429462;32;20169;-65
2020/12/24 06:09:20;;;;;;;0.80;0.70;;;4.50;93.60;;;;;;4431625;32;20159;-65
2020/12/24 06:11:55;;;;;;;1.40;0.80;;;4.40;93.40;;;;;;4428411;32;20202;-66
2020/12/24 06:14:32;;;;;;;2.97;1.17;;;4.50;93.50;;;;;;4426045;32;20162;-66
2020/12/24 06:17:11;;;;;;;1.63;0.70;;;4.50;93.40;;;;;;4430227;32;20249;-66
2020/12/24 06:19:43;;;;;;;1.43;0.50;;;4.60;93.40;;;;;;4426016;32;20162;-67
2020/12/24 06:22:17;;;;;;;0.60;0.60;;;4.60;93.30;;;;;;4423758;32;20274;-66
2020/12/24 06:24:46;;;;;;;0.80;0.60;;;4.60;93.30;;;;;;4424378;32;20280;-64
2020/12/24 06:27:24;;;;;;;1.63;0.63;;;4.60;93.30;;;;;;4430215;32;20211;-66
2020/12/24 06:30:05;;;;;;;0.70;0.60;;;4.60;93.30;;;;;;4420486;32;20591;-66
2020/12/24 06:32:42;;;;;;;1.13;0.77;;;4.60;93.30;;;;;;4421032;32;20173;-67
2020/12/24 06:35:11;;;;;;;0.83;0.70;;;4.60;93.60;;;;;;4433731;32;20147;-68
2020/12/24 06:37:44;;;;;;;1.17;0.60;;;4.60;93.40;;;;;;4426607;32;20219;-65
2020/12/24 06:40:29;;;;;;;1.50;0.50;;;4.70;93.40;;;;;;4426538;32;20300;-67
2020/12/24 06:43:02;;;;;;;0.77;0.40;;;4.70;93.40;;;;;;4428187;32;20330;-66
2020/12/24 06:45:37;;;;;;;1.43;0.70;;;4.80;93.40;;;;;;4425203;32;20511;-65
2020/12/24 06:48:25;;;;;;;1.20;0.57;;;4.80;93.20;;;;;;4427794;32;20453;-67
2020/12/24 06:50:52;;;;;;;0.83;0.50;;;4.80;93.10;;;;;;4433535;32;20159;-65
2020/12/24 06:53:25;;;;;;;2.53;0.60;;;4.70;93.10;;;;;;4432466;32;20217;-67
2020/12/24 06:56:31;;;;;;;1.00;0.60;;;4.80;93.10;;;;;;4429589;32;20151;-65
2020/12/24 06:59:01;;;;;;;1.67;0.47;;;4.80;93.20;;;;;;4428083;32;20162;-68
2020/12/24 07:01:35;;;;;;;2.00;0.77;;;4.80;93.10;;;;;;4426450;32;20151;-66
2020/12/24 07:04:04;;;;;;;1.97;0.60;;;4.80;93.00;;;;;;4430214;32;20159;-67
2020/12/24 07:07:00;;;;;;;1.03;0.77;;;4.80;93.20;;;;;;4427531;32;20588;-66
2020/12/24 07:09:49;;;;;;;0.67;0.67;;;4.90;93.30;;;;;;4427663;32;20155;-66
2020/12/24 07:12:37;;;;;;;0.73;0.60;;;4.80;93.20;;;;;;4429200;32;20183;-65
2020/12/24 07:15:26;;;;;;;1.30;0.87;;;4.90;93.50;;;;;;4429649;32;20652;-68
2020/12/24 07:17:56;;;;;;;2.07;0.80;;;5.00;93.50;;;;;;4425591;32;20235;-66
2020/12/24 07:20:37;;;;;;;2.70;0.63;;;4.80;93.20;;;;;;4426741;32;20236;-66
2020/12/24 07:23:10;;;;;;;3.60;0.80;;;4.80;93.30;;;;;;4429419;32;20762;-68
2020/12/24 07:25:40;;;;;;;3.87;1.00;;;4.70;93.50;;;;;;4430725;32;20591;-67
2020/12/24 07:28:21;;;;;;;1.93;1.17;;;4.80;93.60;;;;;;4426784;32;20279;-67
2020/12/24 07:31:09;;;;;;;1.60;1.30;;;4.80;93.50;;;;;;4426275;32;20147;-66
2020/12/24 07:33:43;;;;;;;1.90;1.53;;;4.80;93.60;;;;;;4425401;32;20155;-67
2020/12/24 07:39:04;;;;;;;3.20;1.33;;;4.90;93.70;;;;;;4424611;32;20248;-66
2020/12/24 07:41:40;;;;;;;3.93;2.00;;;4.90;93.60;;;;;;4425784;32;20173;-66
2020/12/24 07:44:11;;;;;;;2.00;1.80;;;4.90;93.60;;;;;;4424890;32;20181;-68
2020/12/24 07:46:41;;;;;;;3.83;2.17;;;4.90;93.60;;;;;;4426609;32;20167;-68
2020/12/24 07:49:07;;;;;;;3.10;1.70;;;5.00;93.70;;;;;;4426088;32;20181;-68
2020/12/24 07:51:40;;;;;;;2.60;1.87;;;5.00;93.60;;;;;;4426892;32;20524;-67
2020/12/24 07:54:24;;;;;;;2.57;2.13;;;5.00;93.70;;;;;;4424275;32;20237;-67
2020/12/24 07:56:50;;;;;;;3.70;2.00;;;5.10;93.70;;;;;;4423320;32;20583;-67
2020/12/24 07:59:18;;;;;;;3.83;2.07;;;5.10;93.50;;;;;;4427423;32;20171;-68
2020/12/24 08:01:51;;;;;;;5.50;2.63;;;5.20;93.60;;;;;;4427126;32;20180;-68
2020/12/24 08:04:19;;;;;;;4.50;2.83;;;5.10;93.60;;;;;;4429213;32;20215;-68
2020/12/24 08:06:57;;;;;;;5.03;2.43;;;5.00;93.60;;;;;;4427538;32;20226;-67
2020/12/24 08:09:24;;;;;;;3.07;2.30;;;5.00;93.70;;;;;;4425639;32;20302;-68
2020/12/24 08:11:53;;;;;;;4.97;2.30;;;5.00;93.80;;;;;;4427745;32;20158;-68
2020/12/24 08:14:21;;;;;;;2.20;1.93;;;5.10;94.00;;;;;;4425928;32;20283;-67
2020/12/24 08:16:54;;;;;;;2.80;2.30;;;5.20;93.90;;;;;;4426409;32;20155;-67
2020/12/24 08:19:29;;;;;;;4.27;2.40;;;5.20;93.60;;;;;;4430359;32;20253;-68
2020/12/24 08:22:04;;;;;;;3.93;2.53;;;5.30;93.70;;;;;;4428260;32;20229;-67
2020/12/24 08:24:39;;;;;;;4.70;2.37;;;5.40;93.80;;;;;;4424597;32;20560;-67
2020/12/24 08:27:06;;;;;;;3.63;3.07;;;5.60;93.80;;;;;;4426755;32;20269;-67
2020/12/24 08:29:35;;;;;;;5.10;2.77;;;5.60;93.70;;;;;;4426647;32;20210;-68
2020/12/24 08:32:04;;;;;;;6.20;2.87;;;5.70;93.60;;;;;;4432056;32;20234;-68
2020/12/24 08:34:34;;;;;;;3.63;2.50;;;5.50;93.20;;;;;;4422103;32;20654;-67
2020/12/24 08:37:07;;;;;;;4.13;2.77;;;5.50;93.10;;;;;;4423488;32;20160;-68
2020/12/24 08:39:33;;;;;;;5.50;3.07;;;5.40;93.30;;;;;;4421784;32;20196;-67
2020/12/24 08:42:03;;;;;;;3.53;2.70;;;5.40;93.30;;;;;;4424826;32;20266;-68
2020/12/24 08:44:51;;;;;;;5.37;3.20;;;5.40;93.40;;;;;;4426136;32;20164;-67
2020/12/24 08:47:23;;;;;;;4.77;3.10;;;5.40;93.40;;;;;;4425972;32;20549;-68
2020/12/24 08:49:50;;;;;;;3.97;2.47;;;5.50;93.50;;;;;;4423099;32;20174;-68
2020/12/24 08:52:25;;;;;;;4.17;3.40;;;5.50;93.40;;;;;;4425479;32;20220;-68
2020/12/24 08:55:00;;;;;;;6.20;3.40;;;5.50;93.40;;;;;;4433676;32;20155;-68
2020/12/24 08:57:27;;;;;;;6.67;3.30;;;5.50;93.40;;;;;;4431698;32;20173;-68
2020/12/24 08:59:56;;;;;;;6.00;4.00;;;5.60;93.50;;;;;;4430781;32;20175;-68
2020/12/24 09:02:28;;;;;;;5.50;3.27;;;5.70;93.50;;;;;;4432619;32;20230;-66
2020/12/24 09:04:58;;;;;;;4.67;3.53;;;5.70;93.60;;;;;;4427236;32;20241;-67
2020/12/24 09:07:36;;;;;;;5.73;3.03;;;5.70;93.40;;;;;;4428249;32;20238;-67
2020/12/24 09:10:14;;;;;;;11.33;3.70;;;5.70;93.40;;;;;;4429568;32;20459;-67
2020/12/24 09:12:44;;;;;;;5.27;3.30;;;5.70;93.30;;;;;;4434087;32;20308;-68
2020/12/24 09:15:17;;;;;;;5.23;3.30;;;5.70;93.30;;;;;;4425119;32;20163;-67
2020/12/24 09:17:54;;;;;;;4.80;3.30;;;5.70;93.30;;;;;;4430553;32;20213;-69
2020/12/24 09:20:37;;;;;;;4.07;3.00;;;5.80;93.20;;;;;;4426321;32;20177;-67
2020/12/24 09:23:24;;;;;;;7.03;3.23;;;5.80;92.60;;;;;;4430554;32;20676;-67
2020/12/24 09:25:52;;;;;;;5.90;3.50;;;5.70;92.90;;;;;;4423773;32;20151;-67
2020/12/24 09:28:22;;;;;;;9.67;3.73;;;5.80;93.10;;;;;;4423500;32;20219;-67
2020/12/24 09:30:49;;;;;;;5.20;3.03;;;5.90;93.20;;;;;;4429187;32;20160;-67
2020/12/24 09:33:27;;;;;;;4.67;2.97;;;5.80;93.00;;;;;;4428361;32;20158;-67
2020/12/24 09:35:53;;;;;;;7.03;3.43;;;5.80;93.00;;;;;;4430519;32;20185;-68
2020/12/24 09:38:23;;;;;;;6.93;3.07;;;5.90;93.30;;;;;;4424691;32;20490;-68
2020/12/24 09:40:52;;;;;;;10.50;3.60;;;5.90;93.20;;;;;;4427212;32;20159;-69
2020/12/24 09:43:20;;;;;;;8.50;2.53;;;5.90;93.20;;;;;;4427563;32;20178;-67
2020/12/24 09:45:49;;;;;;;6.10;2.13;;;5.90;93.10;;;;;;4429497;32;20156;-67
2020/12/24 09:48:26;;;;;;;4.87;2.67;;;6.00;93.10;;;;;;4428518;32;20160;-68
2020/12/24 09:50:55;;;;;;;4.73;2.23;;;6.20;93.00;;;;;;4428860;32;20159;-68
2020/12/24 09:53:26;;;;;;;4.20;2.20;;;6.10;93.10;;;;;;4429447;32;20159;-67
2020/12/24 09:55:53;;;;;;;4.93;2.10;;;6.20;93.20;;;;;;4431226;32;20224;-67
2020/12/24 09:58:26;;;;;;;6.73;2.93;;;6.10;92.90;;;;;;4428684;32;20163;-67
2020/12/24 10:00:54;;;;;;;7.40;2.50;;;6.20;92.80;;;;;;4428989;32;20247;-67
2020/12/24 10:03:21;;;;;;;6.97;2.30;;;6.10;92.60;;;;;;4425545;32;20220;-69
2020/12/24 10:05:48;;;;;;;3.77;2.17;;;6.10;92.70;;;;;;4431479;32;20147;-69
2020/12/24 10:08:19;;;;;;;3.00;2.20;;;6.10;92.60;;;;;;4427649;32;20191;-69
2020/12/24 10:10:47;;;;;;;6.23;2.40;;;6.10;92.70;;;;;;4426550;32;20198;-69
2020/12/24 10:13:16;;;;;;;5.53;2.77;;;6.10;92.80;;;;;;4425647;32;20284;-69
2020/12/24 10:15:46;;;;;;;10.07;3.53;;;6.20;92.80;;;;;;4425736;32;20610;-69
2020/12/24 10:18:14;;;;;;;9.03;2.80;;;6.30;92.90;;;;;;4427323;32;20497;-69
2020/12/24 10:20:48;;;;;;;6.33;2.93;;;6.30;92.90;;;;;;4430166;32;20230;-68
2020/12/24 10:23:17;;;;;;;9.73;3.60;;;6.30;92.60;;;;;;4428259;32;20147;-68
2020/12/24 10:25:46;;;;;;;9.13;3.07;;;6.30;92.50;;;;;;4428014;32;20274;-68
2020/12/24 10:28:18;;;;;;;8.07;3.03;;;6.20;92.30;;;;;;4428367;32;20217;-69
2020/12/24 10:30:45;;;;;;;10.90;3.10;;;6.40;92.60;;;;;;4423982;32;20171;-68
2020/12/24 10:33:11;;;;;;;11.07;2.87;;;6.50;92.60;;;;;;4423425;32;20230;-68
2020/12/24 10:35:50;;;;;;;16.67;3.20;;;6.50;92.40;;;;;;4429415;32;20233;-68
2020/12/24 10:38:23;;;;;;;9.00;3.00;;;6.50;92.20;;;;;;4429103;32;20211;-68
2020/12/24 10:40:55;;;;;;;10.53;2.40;;;6.50;92.00;;;;;;4427324;32;20160;-68
2020/12/24 10:43:23;;;;;;;10.47;2.80;;;6.50;92.10;;;;;;4432188;32;20174;-69
2020/12/24 10:46:07;;;;;;;13.17;2.87;;;6.70;92.10;;;;;;4427099;32;20151;-68
2020/12/24 10:48:38;;;;;;;21.77;3.27;;;6.70;91.90;;;;;;4425431;32;20178;-69
2020/12/24 10:51:08;;;;;;;10.40;3.13;;;6.60;91.60;;;;;;4428494;32;20584;-69
2020/12/24 10:53:34;;;;;;;15.80;3.50;;;6.50;91.60;;;;;;4427017;32;20174;-68
2020/12/24 10:56:01;;;;;;;11.97;2.50;;;6.50;91.30;;;;;;4425600;32;20583;-68
2020/12/24 10:58:27;;;;;;;16.43;2.70;;;6.50;91.50;;;;;;4420870;32;20163;-68
2020/12/24 11:00:55;;;;;;;12.93;2.40;;;6.60;91.40;;;;;;4425007;32;20179;-68
2020/12/24 11:03:27;;;;;;;13.07;2.30;;;6.60;91.50;;;;;;4430861;32;20167;-68
2020/12/24 11:05:54;;;;;;;13.30;2.77;;;6.70;91.50;;;;;;4421860;32;20550;-67
2020/12/24 11:08:21;;;;;;;11.93;2.50;;;6.80;91.40;;;;;;4429562;32;20179;-67
2020/12/24 11:10:49;;;;;;;6.93;1.87;;;6.70;90.90;;;;;;4428286;32;20177;-68
2020/12/24 11:13:24;;;;;;;13.10;2.90;;;6.60;91.00;;;;;;4434723;32;20167;-67
2020/12/24 11:15:53;;;;;;;19.77;2.33;;;6.70;90.70;;;;;;4426209;32;20159;-69
2020/12/24 11:18:20;;;;;;;19.93;3.03;;;6.70;90.10;;;;;;4425972;32;20272;-68
2020/12/24 11:20:55;;;;;;;13.20;3.23;;;6.70;90.40;;;;;;4424965;32;20598;-68
2020/12/24 11:23:31;;;;;;;21.60;2.40;;;6.70;90.90;;;;;;4430631;32;20188;-68
2020/12/24 11:26:02;;;;;;;13.87;2.63;;;6.80;90.10;;;;;;4429886;32;20235;-69
2020/12/24 11:28:31;;;;;;;10.20;2.40;;;6.90;90.20;;;;;;4432125;32;20155;-68
2020/12/24 11:30:57;;;;;;;12.43;2.67;;;6.80;90.00;;;;;;4431291;32;20204;-68
2020/12/24 11:33:26;;;;;;;9.93;3.00;;;7.00;89.50;;;;;;4423751;32;20194;-68
2020/12/24 11:35:56;;;;;;;12.23;3.10;;;7.00;87.90;;;;;;4430946;32;20151;-67
2020/12/24 11:38:22;;;;;;;14.53;2.93;;;7.00;88.40;;;;;;4426178;32;20182;-67
2020/12/24 11:41:01;;;;;;;12.10;2.80;;;7.10;89.00;;;;;;4430624;32;20167;-68
2020/12/24 11:43:30;;;;;;;11.13;2.77;;;7.00;87.80;;;;;;4427590;32;20181;-67
2020/12/24 11:45:56;;;;;;;11.53;2.67;;;6.90;88.00;;;;;;4432582;32;20160;-68
2020/12/24 11:48:23;;;;;;;13.93;2.17;;;6.90;88.80;;;;;;4424294;32;20178;-67
2020/12/24 11:50:53;;;;;;;10.13;2.90;;;6.90;88.90;;;;;;4421498;32;20225;-67
2020/12/24 11:53:19;;;;;;;6.60;2.00;;;6.90;88.90;;;;;;4426914;32;20155;-67
2020/12/24 11:55:48;;;;;;;10.10;2.37;;;6.90;88.10;;;;;;4426458;32;20615;-67
2020/12/24 11:58:17;;;;;;;11.13;2.10;;;6.90;89.10;;;;;;4427315;32;20175;-67
2020/12/24 12:01:00;;;;;;;9.07;1.97;;;6.90;89.30;;;;;;4426781;32;20230;-67
2020/12/24 12:03:26;;;;;;;4.20;1.60;;;6.90;87.50;;;;;;4427872;32;20175;-67
2020/12/24 12:05:52;;;;;;;10.03;2.13;;;6.90;88.80;;;;;;4426723;32;20275;-67
2020/12/24 12:08:21;;;;;;;10.50;1.93;;;6.90;89.10;;;;;;4427478;32;20183;-67
2020/12/24 12:10:49;;;;;;;8.33;1.77;;;6.90;87.20;;;;;;4425830;32;20160;-67
2020/12/24 12:13:19;;;;;;;9.80;2.00;;;6.90;87.00;;;;;;4426237;32;20178;-67
2020/12/24 12:15:47;;;;;;;12.57;2.13;;;6.90;88.70;;;;;;4427391;32;20182;-65
2020/12/24 12:18:15;;;;;;;9.50;1.70;;;7.00;88.00;;;;;;4425989;32;20500;-67
2020/12/24 12:20:44;;;;;;;5.77;1.70;;;7.00;88.30;;;;;;4427594;32;20222;-67
2020/12/24 12:23:16;;;;;;;10.30;2.47;;;7.00;85.80;;;;;;4426960;32;20206;-67
2020/12/24 12:25:42;;;;;;;9.37;1.80;;;7.00;85.50;;;;;;4430104;32;20151;-66
2020/12/24 12:28:12;;;;;;;7.23;2.10;;;7.00;87.00;;;;;;4428877;32;20503;-67
2020/12/24 12:30:45;;;;;;;7.80;1.60;;;7.00;87.70;;;;;;4431582;32;20597;-68
2020/12/24 12:33:11;;;;;;;15.00;2.60;;;6.90;86.60;;;;;;4429592;32;20202;-69
2020/12/24 12:35:40;;;;;;;7.63;1.27;;;6.90;88.20;;;;;;4426085;32;20307;-68
2020/12/24 12:38:09;;;;;;;6.10;1.77;;;6.90;86.90;;;;;;4429261;32;20174;-69
2020/12/24 12:40:36;;;;;;;14.30;2.10;;;6.90;87.10;;;;;;4432055;32;20170;-69
2020/12/24 12:43:06;;;;;;;8.37;1.63;;;6.90;85.70;;;;;;4431878;32;20222;-67
2020/12/24 12:45:36;;;;;;;11.87;1.70;;;6.90;86.30;;;;;;4435271;32;20147;-67
2020/12/24 12:48:06;;;;;;;9.30;1.97;;;6.80;86.70;;;;;;4429783;32;20206;-69
2020/12/24 12:50:33;;;;;;;9.57;1.80;;;6.80;86.50;;;;;;4433931;32;20572;-69
2020/12/24 12:53:02;;;;;;;7.60;1.73;;;6.70;86.80;;;;;;4432951;32;20601;-68
2020/12/24 12:55:28;;;;;;;13.67;2.23;;;6.80;87.70;;;;;;4434563;32;20154;-67
2020/12/24 12:57:58;;;;;;;7.03;1.80;;;6.80;85.20;;;;;;4431601;32;20657;-67
2020/12/24 13:00:29;;;;;;;10.93;2.00;;;6.70;88.00;;;;;;4432687;32;20163;-67
2020/12/24 13:03:04;;;;;;;12.00;2.17;;;6.70;87.70;;;;;;4427166;32;20147;-68
2020/12/24 13:05:37;;;;;;;7.53;2.00;;;6.80;87.30;;;;;;4431864;32;20230;-67
2020/12/24 13:08:03;;;;;;;11.30;2.33;;;6.70;87.20;;;;;;4427271;32;20156;-68
2020/12/24 13:10:30;;;;;;;8.67;1.77;;;6.60;87.90;;;;;;4431475;32;20623;-69
2020/12/24 13:12:56;;;;;;;7.53;1.80;;;6.50;88.80;;;;;;4428620;32;20210;-68
2020/12/24 13:15:22;;;;;;;8.03;2.00;;;6.50;88.80;;;;;;4426916;32;20179;-68
2020/12/24 13:17:49;;;;;;;8.47;2.10;;;6.70;87.40;;;;;;4429603;32;20178;-68